Strona główna
METAR-TAF:

METAR-TAF

Lotnisko :

Mitchell Municipal Airport

Mitchell, Dakota Południowa, Stany Zjednoczone

Szerokość geograficzna: 43-46N, Długość geograficzna: 098-02W, wysokość: 397 m

Aktualna obserwacja pogody

Raport powstał 22 minut temu, godzina 21:53 UTC
Wiatr 10 kt od wschód
Temperatura 0°C
Wilgotność 86%
Ciśnienie 1005 hPa
Widzialność: 6.4 km
Zachmurzenie całkowite na wysokości 400 ft
zamglenie

METAR: KMHE 082153Z AUTO 09010KT 4SM BR OVC004 00/M02 A2969 RMK AO2 SLP067 T00001017

czas: 16:15 (22:15 UTC)


TAF: brakujący

Obserwacja i prognoza pogody dla ponad 4000 lotnisk (raport METAR i TAF).

Dostępne stacje oznaczono żółtymi i czerwonymi punktami na mapie.

Najedź kursorem aby zobaczyć nazwę stacji.

Kliknij aby zobaczyć obserwacje i prognozy pogody.

Aby zmienić mapę: kliknij na zielony przycisk z czarnym krzyżykiem, aby powiększyć; na zielony przycisk z myślnikiem, aby pomniejszyć; na zielone strzałki, aby przejść do map sąsiednich.


METAR-TAF: